createdAt,value
2024-05-09T00:01:18.010Z,11.45
2024-05-09T00:03:48.552Z,11.35
2024-05-09T00:06:18.748Z,11.34
2024-05-09T00:08:51.580Z,11.25
2024-05-09T00:11:23.024Z,11.12
2024-05-09T00:13:53.346Z,11.03
2024-05-09T00:16:23.547Z,11.01
2024-05-09T00:18:54.380Z,10.94
2024-05-09T00:21:24.596Z,10.88
2024-05-09T00:23:57.417Z,10.88
2024-05-09T00:26:27.634Z,10.75
2024-05-09T00:28:57.946Z,10.67
2024-05-09T00:31:28.390Z,10.64
2024-05-09T00:33:58.655Z,10.53
2024-05-09T00:36:28.909Z,10.45
2024-05-09T00:39:01.711Z,10.39
2024-05-09T00:41:31.883Z,10.43
2024-05-09T00:44:02.720Z,10.33
2024-05-09T00:46:32.916Z,10.27
2024-05-09T00:49:03.946Z,10.25
2024-05-09T00:51:34.276Z,10.26
2024-05-09T00:54:07.962Z,10.11
2024-05-09T00:56:38.598Z,10.02
2024-05-09T00:59:09.433Z,9.96
2024-05-09T01:01:39.828Z,9.90
2024-05-09T01:04:11.415Z,9.96
2024-05-09T01:06:41.850Z,9.96
2024-05-09T01:09:14.971Z,9.85
2024-05-09T01:11:45.235Z,9.84
2024-05-09T01:14:15.618Z,9.88
2024-05-09T01:16:46.073Z,9.87
2024-05-09T01:19:25.873Z,9.87
2024-05-09T01:21:56.228Z,9.91
2024-05-09T01:24:29.062Z,9.78
2024-05-09T01:26:59.232Z,9.81
2024-05-09T01:29:29.610Z,9.79
2024-05-09T01:32:00.936Z,9.80
2024-05-09T01:34:31.172Z,9.73
2024-05-09T01:37:01.363Z,9.71
2024-05-09T01:39:34.186Z,9.76
2024-05-09T01:42:04.396Z,9.76
2024-05-09T01:44:34.624Z,9.73
2024-05-09T01:47:05.512Z,9.70
2024-05-09T01:49:38.899Z,9.76
2024-05-09T01:52:09.347Z,9.82
2024-05-09T01:54:42.195Z,9.72
2024-05-09T01:57:12.346Z,9.63
2024-05-09T01:59:42.520Z,9.51
2024-05-09T02:02:12.831Z,9.58
2024-05-09T02:04:43.383Z,9.48
2024-05-09T02:07:13.695Z,9.51
2024-05-09T02:09:46.578Z,9.55
2024-05-09T02:12:16.936Z,9.47
2024-05-09T02:14:47.209Z,9.41
2024-05-09T02:17:17.456Z,9.38
2024-05-09T02:19:47.742Z,9.42
2024-05-09T02:22:17.935Z,9.46
2024-05-09T02:24:50.774Z,9.45
2024-05-09T02:27:20.939Z,9.36
2024-05-09T02:29:51.164Z,9.28
2024-05-09T02:32:21.390Z,9.19
2024-05-09T02:34:51.810Z,9.09
2024-05-09T02:37:19.403Z,9.04
2024-05-09T02:39:52.194Z,8.91
2024-05-09T02:42:19.729Z,8.91
2024-05-09T02:44:49.917Z,8.91
2024-05-09T02:47:17.530Z,8.81
2024-05-09T02:49:47.861Z,8.78
2024-05-09T02:52:17.526Z,8.64
2024-05-09T02:54:47.972Z,8.61
2024-05-09T02:57:18.143Z,8.63
2024-05-09T02:59:48.327Z,8.64
2024-05-09T03:02:15.965Z,8.57
2024-05-09T03:04:46.510Z,8.54
2024-05-09T03:07:14.283Z,8.51
2024-05-09T03:09:48.827Z,8.46
2024-05-09T03:12:19.139Z,8.42
2024-05-09T03:14:52.711Z,8.43
2024-05-09T03:17:20.537Z,8.45
2024-05-09T03:19:50.821Z,8.44
2024-05-09T03:22:18.406Z,8.39
2024-05-09T03:24:48.564Z,8.39
2024-05-09T03:27:18.880Z,8.39
2024-05-09T03:29:49.032Z,8.36
2024-05-09T03:32:16.726Z,8.34
2024-05-09T03:34:46.971Z,8.35
2024-05-09T03:37:17.156Z,8.38
2024-05-09T03:39:47.387Z,8.43
2024-05-09T03:42:17.529Z,8.38
2024-05-09T03:44:50.344Z,8.39
2024-05-09T03:47:17.972Z,8.27
2024-05-09T03:49:48.185Z,8.21
2024-05-09T03:52:15.847Z,8.27
2024-05-09T03:54:49.181Z,8.28
2024-05-09T03:57:16.900Z,8.27
2024-05-09T03:59:47.082Z,8.28
2024-05-09T04:02:17.346Z,8.25
2024-05-09T04:04:47.605Z,8.20
2024-05-09T04:07:15.163Z,8.14
2024-05-09T04:09:45.343Z,8.18
2024-05-09T04:12:12.978Z,8.20
2024-05-09T04:14:43.183Z,8.14
2024-05-09T04:17:10.871Z,8.11
2024-05-09T04:19:43.748Z,8.09
2024-05-09T04:22:11.704Z,8.07
2024-05-09T04:24:41.854Z,8.10
2024-05-09T04:27:09.397Z,8.04
2024-05-09T04:29:40.046Z,8.06
2024-05-09T04:32:08.372Z,8.08
2024-05-09T04:34:39.510Z,8.06
2024-05-09T04:37:09.766Z,8.12
2024-05-09T04:39:39.915Z,8.13
2024-05-09T04:42:07.433Z,8.14
2024-05-09T04:44:37.655Z,8.15
2024-05-09T04:47:05.342Z,8.21
2024-05-09T04:49:35.773Z,8.22
2024-05-09T04:52:03.557Z,8.28
2024-05-09T04:54:36.886Z,8.29
2024-05-09T04:57:07.387Z,8.31
2024-05-09T04:59:36.321Z,8.34
2024-05-09T05:02:06.885Z,8.37
2024-05-09T05:04:34.716Z,8.37
2024-05-09T05:07:04.860Z,8.43
2024-05-09T05:09:35.077Z,8.47
2024-05-09T05:12:25.246Z,8.55
2024-05-09T05:14:52.958Z,8.56
2024-05-09T05:17:23.274Z,8.61
2024-05-09T05:19:51.077Z,8.67
2024-05-09T05:22:21.352Z,8.72
2024-05-09T05:24:51.518Z,8.74
2024-05-09T05:27:21.823Z,8.76
2024-05-09T05:29:49.360Z,8.82
2024-05-09T05:32:19.795Z,8.92
2024-05-09T05:34:47.564Z,8.90
2024-05-09T05:37:17.722Z,8.93
2024-05-09T05:39:45.262Z,8.95
2024-05-09T05:42:18.329Z,9.02
2024-05-09T05:44:45.852Z,9.05
2024-05-09T05:47:16.030Z,9.10
2024-05-09T05:49:43.617Z,9.16
2024-05-09T05:52:13.899Z,9.23
2024-05-09T05:54:41.464Z,9.30
2024-05-09T05:57:11.794Z,9.38
2024-05-09T05:59:41.993Z,9.46
2024-05-09T06:02:13.923Z,9.51
2024-05-09T06:04:42.506Z,9.59
2024-05-09T06:07:12.854Z,9.68
2024-05-09T06:09:40.421Z,9.80
2024-05-09T06:12:10.938Z,9.85
2024-05-09T06:14:38.636Z,9.88
2024-05-09T06:17:11.699Z,9.92
2024-05-09T06:19:39.579Z,9.97
2024-05-09T06:22:11.085Z,10.02
2024-05-09T06:24:38.656Z,10.11
2024-05-09T06:27:08.827Z,10.17
2024-05-09T06:29:38.417Z,10.22
2024-05-09T06:32:11.628Z,10.27
2024-05-09T06:34:39.352Z,10.36
2024-05-09T06:37:09.520Z,10.43
2024-05-09T06:39:37.109Z,10.48
2024-05-09T06:42:07.483Z,10.55
2024-05-09T06:44:35.133Z,10.59
2024-05-09T06:47:05.580Z,10.70
2024-05-09T06:49:37.661Z,10.82
2024-05-09T06:52:08.776Z,10.96
2024-05-09T06:54:37.676Z,10.98
2024-05-09T06:57:08.037Z,11.04
2024-05-09T06:59:35.610Z,11.16
2024-05-09T07:02:06.406Z,11.26
2024-05-09T07:04:37.024Z,11.33
2024-05-09T07:07:09.333Z,11.39
2024-05-09T07:09:37.607Z,11.56
2024-05-09T07:12:08.704Z,11.64
2024-05-09T07:14:38.147Z,11.72
2024-05-09T07:17:08.995Z,11.77
2024-05-09T07:19:39.526Z,11.81
2024-05-09T07:22:09.855Z,11.88
2024-05-09T07:24:37.606Z,12.03
2024-05-09T07:27:08.173Z,12.15
2024-05-09T07:29:38.547Z,12.25
2024-05-09T07:32:09.338Z,12.34
2024-05-09T07:34:39.679Z,12.42
2024-05-09T07:37:12.764Z,12.51
2024-05-09T07:39:40.657Z,12.60
2024-05-09T07:42:10.920Z,12.75
2024-05-09T07:44:38.581Z,12.81
2024-05-09T07:48:14.691Z,12.81
2024-05-09T07:51:33.090Z,12.94
2024-05-09T07:53:35.269Z,12.97
2024-05-09T07:55:37.745Z,13.00
2024-05-09T07:58:08.706Z,13.14
2024-05-09T08:00:36.384Z,13.19
2024-05-09T08:03:07.106Z,13.25
2024-05-09T08:05:38.247Z,13.28
2024-05-09T08:08:09.124Z,13.43
2024-05-09T08:10:36.764Z,13.45
2024-05-09T08:13:07.444Z,13.49
2024-05-09T08:15:35.147Z,13.58
2024-05-09T08:18:05.501Z,13.64
2024-05-09T08:20:35.299Z,13.69
2024-05-09T08:23:08.898Z,13.79
2024-05-09T08:25:36.520Z,13.86
2024-05-09T08:28:07.286Z,13.87
2024-05-09T08:30:37.347Z,13.95
2024-05-09T08:33:09.106Z,14.00
2024-05-09T08:35:36.753Z,14.08
2024-05-09T08:38:10.440Z,14.10
2024-05-09T08:40:38.585Z,14.14
2024-05-09T08:43:12.139Z,14.21
2024-05-09T08:45:44.157Z,14.28
2024-05-09T08:48:17.007Z,14.40
2024-05-09T08:50:45.666Z,14.43
2024-05-09T08:53:18.850Z,14.53
2024-05-09T08:55:47.080Z,14.58
2024-05-09T08:58:20.023Z,14.64
2024-05-09T09:00:49.360Z,14.68
2024-05-09T09:03:21.160Z,14.68
2024-05-09T09:05:55.015Z,14.73
2024-05-09T09:08:29.090Z,14.76
2024-05-09T09:10:58.614Z,14.79
2024-05-09T09:13:29.022Z,14.82
2024-05-09T09:15:59.159Z,14.84
2024-05-09T09:18:30.943Z,14.94
2024-05-09T09:20:59.034Z,15.01
2024-05-09T09:23:32.008Z,15.06
2024-05-09T09:25:59.814Z,15.13
2024-05-09T09:28:30.349Z,15.19
2024-05-09T09:31:01.989Z,15.21
2024-05-09T09:33:36.074Z,15.26
2024-05-09T09:36:06.955Z,15.35
2024-05-09T09:38:42.396Z,15.42
2024-05-09T09:41:10.921Z,15.58
2024-05-09T09:43:42.231Z,15.63
2024-05-09T09:46:12.840Z,15.67
2024-05-09T09:48:45.337Z,15.71
2024-05-09T09:51:15.179Z,15.67
2024-05-09T09:53:50.152Z,15.52
2024-05-09T09:56:18.588Z,15.68
2024-05-09T09:58:50.934Z,15.77
2024-05-09T10:01:18.768Z,15.87
2024-05-09T10:03:49.187Z,16.01
2024-05-09T10:06:18.184Z,16.06
2024-05-09T10:08:51.732Z,16.12
2024-05-09T10:11:20.505Z,16.20
2024-05-09T10:13:50.853Z,16.27
2024-05-09T10:16:21.538Z,16.39
2024-05-09T10:18:52.169Z,16.60
2024-05-09T10:21:20.488Z,16.81
2024-05-09T10:24:04.782Z,16.84
2024-05-09T10:26:33.323Z,16.99
2024-05-09T10:29:04.708Z,17.31
2024-05-09T10:31:32.534Z,17.70
2024-05-09T10:34:03.621Z,17.81
2024-05-09T10:36:31.360Z,18.04
2024-05-09T10:39:05.468Z,18.15
2024-05-09T10:41:33.191Z,18.37
2024-05-09T10:44:03.430Z,18.52
2024-05-09T10:46:31.078Z,18.69
2024-05-09T10:49:05.302Z,18.61
2024-05-09T10:51:35.292Z,18.58
2024-05-09T10:54:08.256Z,18.49
2024-05-09T10:56:35.929Z,18.78
2024-05-09T10:59:06.474Z,18.62
2024-05-09T11:01:34.384Z,18.77
2024-05-09T11:04:05.087Z,19.26
2024-05-09T11:06:35.085Z,19.14
2024-05-09T11:09:08.801Z,19.55
2024-05-09T11:11:36.529Z,19.62
2024-05-09T11:14:14.878Z,19.72
2024-05-09T11:16:42.426Z,19.44
2024-05-09T11:19:15.486Z,19.65
2024-05-09T11:21:43.336Z,20.09
2024-05-09T11:24:16.526Z,20.50
2024-05-09T11:26:44.147Z,20.64
2024-05-09T11:29:17.106Z,20.64
2024-05-09T11:31:46.826Z,20.76
2024-05-09T11:34:17.758Z,20.77
2024-05-09T11:36:45.532Z,20.59
2024-05-09T11:39:18.566Z,20.65
2024-05-09T11:41:46.153Z,20.31
2024-05-09T11:44:16.487Z,20.18
2024-05-09T11:46:44.158Z,20.64
2024-05-09T11:49:14.486Z,20.89
2024-05-09T11:51:42.129Z,21.05
2024-05-09T11:54:12.346Z,21.20
2024-05-09T11:56:42.988Z,21.23
2024-05-09T11:59:13.387Z,21.30
2024-05-09T12:01:41.287Z,21.55
2024-05-09T12:04:12.057Z,21.43
2024-05-09T12:06:40.102Z,21.12
2024-05-09T12:09:10.415Z,21.28
2024-05-09T12:11:38.042Z,21.45
2024-05-09T12:14:10.877Z,21.18
2024-05-09T12:16:38.663Z,21.15
2024-05-09T12:19:09.243Z,21.33
2024-05-09T12:21:37.299Z,21.62
2024-05-09T12:24:07.681Z,21.72
2024-05-09T12:26:35.654Z,21.17
2024-05-09T12:29:05.893Z,21.62
2024-05-09T12:31:36.130Z,21.61
2024-05-09T12:34:06.426Z,21.69
2024-05-09T12:36:34.263Z,21.58
2024-05-09T12:39:06.280Z,21.45
2024-05-09T12:41:33.882Z,21.72
2024-05-09T12:44:04.052Z,21.69
2024-05-09T12:46:31.991Z,21.99
2024-05-09T12:49:05.174Z,22.59
2024-05-09T12:51:32.958Z,22.37
2024-05-09T12:54:03.243Z,22.56
2024-05-09T12:56:30.807Z,22.61
2024-05-09T12:59:01.093Z,22.14
2024-05-09T13:01:28.828Z,22.46
2024-05-09T13:03:59.300Z,22.43
2024-05-09T13:06:29.717Z,22.68
2024-05-09T13:09:00.107Z,22.59
2024-05-09T13:11:27.791Z,22.11
2024-05-09T13:13:58.248Z,22.58
2024-05-09T13:16:26.181Z,22.75
2024-05-09T13:18:56.450Z,22.73
2024-05-09T13:21:24.118Z,22.77
2024-05-09T13:23:58.354Z,22.65
2024-05-09T13:26:27.720Z,22.29
2024-05-09T13:28:58.011Z,22.26
2024-05-09T13:31:25.730Z,22.28
2024-05-09T13:33:56.276Z,22.35
2024-05-09T13:36:24.202Z,22.75
2024-05-09T13:38:57.368Z,23.18
2024-05-09T13:41:24.958Z,23.32
2024-05-09T13:43:55.954Z,23.10
2024-05-09T13:46:23.859Z,23.06
2024-05-09T13:48:54.419Z,23.29
2024-05-09T13:51:22.209Z,23.06
2024-05-09T13:56:22.487Z,22.95
2024-05-09T13:58:52.864Z,23.08
2024-05-09T14:01:20.657Z,23.63
2024-05-09T14:03:51.456Z,23.08
2024-05-09T14:06:19.230Z,23.19
2024-05-09T14:08:49.620Z,23.45
2024-05-09T14:11:17.304Z,24.29
2024-05-09T14:13:50.282Z,24.24
2024-05-09T14:16:18.341Z,23.75
2024-05-09T14:18:48.714Z,23.50
2024-05-09T14:21:16.337Z,23.30
2024-05-09T14:23:46.651Z,23.31
2024-05-09T14:26:14.339Z,23.28
2024-05-09T14:28:44.603Z,23.42
2024-05-09T14:31:14.844Z,23.59
2024-05-09T14:33:45.255Z,23.77
2024-05-09T14:36:12.985Z,24.08
2024-05-09T14:38:43.265Z,23.29
2024-05-09T14:41:13.186Z,23.21
2024-05-09T14:43:43.384Z,23.19
2024-05-09T14:46:11.056Z,23.22
2024-05-09T14:48:44.409Z,23.08
2024-05-09T14:51:12.112Z,22.67
2024-05-09T14:53:42.693Z,22.77
2024-05-09T14:56:10.378Z,22.45
2024-05-09T14:58:40.666Z,22.29
2024-05-09T15:01:08.439Z,22.09
2024-05-09T15:03:38.898Z,22.36
2024-05-09T15:06:09.328Z,22.43
2024-05-09T15:08:39.840Z,22.47
2024-05-09T15:11:07.508Z,22.52
2024-05-09T15:13:37.856Z,22.37
2024-05-09T15:16:06.279Z,22.69
2024-05-09T15:18:36.871Z,22.34
2024-05-09T15:21:09.177Z,22.35
2024-05-09T15:23:39.462Z,22.37
2024-05-09T15:26:07.229Z,22.17
2024-05-09T15:28:37.442Z,22.04
2024-05-09T15:31:05.332Z,22.01
2024-05-09T15:33:35.711Z,21.74
2024-05-09T15:36:03.594Z,21.44
2024-05-09T15:38:37.237Z,21.38
2024-05-09T15:41:05.238Z,21.65
2024-05-09T15:43:35.790Z,21.60
2024-05-09T15:46:03.552Z,21.59
2024-05-09T15:48:34.197Z,21.57
2024-05-09T15:51:02.105Z,21.54
2024-05-09T15:53:32.332Z,21.27
2024-05-09T15:56:02.642Z,21.00
2024-05-09T15:58:32.891Z,21.06
2024-05-09T16:01:00.646Z,21.05
2024-05-09T16:03:31.306Z,21.05
2024-05-09T16:05:59.185Z,21.07
2024-05-09T16:08:29.709Z,21.10
2024-05-09T16:10:57.630Z,21.02
2024-05-09T16:13:30.697Z,20.90
2024-05-09T16:15:58.550Z,20.68
2024-05-09T16:18:28.999Z,20.92
2024-05-09T16:21:00.332Z,20.63
2024-05-09T16:23:31.122Z,20.63
2024-05-09T16:25:58.821Z,20.56
2024-05-09T16:28:33.017Z,20.60
2024-05-09T16:31:01.536Z,20.40
2024-05-09T16:33:32.130Z,20.38
2024-05-09T16:36:00.170Z,20.34
2024-05-09T16:38:30.446Z,20.35
2024-05-09T16:40:58.275Z,20.24
2024-05-09T16:43:31.334Z,20.20
2024-05-09T16:45:59.048Z,20.13
2024-05-09T16:48:30.472Z,20.07
2024-05-09T16:51:03.006Z,20.01
2024-05-09T16:53:34.234Z,19.99
2024-05-09T16:56:02.328Z,19.82
2024-05-09T16:58:35.283Z,19.71
2024-05-09T17:01:03.236Z,19.73
2024-05-09T17:03:34.072Z,19.61
2024-05-09T17:06:03.314Z,19.51
2024-05-09T17:08:33.885Z,19.48
2024-05-09T17:11:01.809Z,19.48
2024-05-09T17:13:32.490Z,19.48
2024-05-09T17:16:05.570Z,19.47
2024-05-09T17:18:36.042Z,19.50
2024-05-09T17:21:03.802Z,19.43
2024-05-09T17:23:35.019Z,19.36
2024-05-09T17:26:02.989Z,19.42
2024-05-09T17:28:33.460Z,19.42
2024-05-09T17:31:07.597Z,19.29
2024-05-09T17:33:35.118Z,19.18
2024-05-09T17:36:05.371Z,19.15
2024-05-09T17:38:33.139Z,19.23
2024-05-09T17:41:03.321Z,19.18
2024-05-09T17:43:31.184Z,19.09
2024-05-09T17:46:01.742Z,18.99
2024-05-09T17:48:32.214Z,19.07
2024-05-09T17:51:02.730Z,19.07
2024-05-09T17:53:30.269Z,19.08
2024-05-09T17:56:01.516Z,19.11
2024-05-09T17:58:29.694Z,19.12
2024-05-09T18:01:00.139Z,19.10
2024-05-09T18:03:28.156Z,19.05
2024-05-09T18:06:01.256Z,18.88
2024-05-09T18:08:28.882Z,18.87
2024-05-09T18:10:59.347Z,18.84
2024-05-09T18:13:27.308Z,18.82
2024-05-09T18:15:57.661Z,18.75
2024-05-09T18:18:25.481Z,18.63
2024-05-09T18:20:55.876Z,18.57
2024-05-09T18:23:26.231Z,18.50
2024-05-09T18:25:57.108Z,18.48
2024-05-09T18:28:25.372Z,18.40
2024-05-09T18:30:55.818Z,18.29
2024-05-09T18:33:24.587Z,18.11
2024-05-09T18:35:55.126Z,18.24
2024-05-09T18:38:26.991Z,18.29
2024-05-09T18:40:57.546Z,18.20
2024-05-09T18:43:31.130Z,18.18
2024-05-09T18:46:06.567Z,18.03
2024-05-09T18:48:34.481Z,17.96
2024-05-09T18:51:05.603Z,17.92
2024-05-09T18:53:35.872Z,17.88
2024-05-09T18:56:06.237Z,17.77
2024-05-09T18:58:34.062Z,17.77
2024-05-09T19:01:04.624Z,17.75
2024-05-09T19:03:32.684Z,17.82
2024-05-09T19:06:03.316Z,17.73
2024-05-09T19:08:30.942Z,17.69
2024-05-09T19:11:04.050Z,17.52
2024-05-09T19:13:32.011Z,17.46
2024-05-09T19:16:02.407Z,17.43
2024-05-09T19:18:30.854Z,17.38
2024-05-09T19:21:01.535Z,17.27
2024-05-09T19:23:29.320Z,17.20
2024-05-09T19:25:59.810Z,17.13
2024-05-09T19:28:30.088Z,17.04
2024-05-09T19:31:00.364Z,17.03
2024-05-09T19:33:28.016Z,17.05
2024-05-09T19:35:58.276Z,17.22
2024-05-09T19:38:25.993Z,17.21
2024-05-09T19:40:56.300Z,17.14
2024-05-09T19:43:24.119Z,17.06
2024-05-09T19:45:57.455Z,17.05
2024-05-09T19:48:25.271Z,16.94
2024-05-09T19:50:55.532Z,16.90
2024-05-09T19:53:23.568Z,16.87
2024-05-09T19:55:53.765Z,16.78
2024-05-09T19:58:21.479Z,16.81
2024-05-09T20:00:51.924Z,16.77
2024-05-09T20:03:22.278Z,16.88
2024-05-09T20:05:52.570Z,16.79
2024-05-09T20:08:20.133Z,16.80
2024-05-09T20:10:50.557Z,16.78
2024-05-09T20:13:18.304Z,16.87
2024-05-09T20:15:48.742Z,16.81
2024-05-09T20:18:18.001Z,16.74
2024-05-09T20:20:53.921Z,16.67
2024-05-09T20:23:22.166Z,16.65
2024-05-09T20:25:52.371Z,16.56
2024-05-09T20:28:20.065Z,16.43
2024-05-09T20:30:50.426Z,16.35
2024-05-09T20:33:18.019Z,16.31
2024-05-09T20:35:51.542Z,16.30
2024-05-09T20:38:19.085Z,16.28
2024-05-09T20:40:49.484Z,16.16
2024-05-09T20:43:17.393Z,16.12
2024-05-09T20:45:47.649Z,15.89
2024-05-09T20:48:15.573Z,15.86
2024-05-09T20:50:45.968Z,15.81
2024-05-09T20:53:16.495Z,15.73
2024-05-09T20:55:47.160Z,15.67
2024-05-09T20:58:14.845Z,15.56
2024-05-09T21:00:46.695Z,15.53
2024-05-09T21:03:16.490Z,15.43
2024-05-09T21:05:48.656Z,15.36
2024-05-09T21:08:19.812Z,15.28
2024-05-09T21:10:50.286Z,15.21
2024-05-09T21:13:18.051Z,15.14
2024-05-09T21:15:48.417Z,15.10
2024-05-09T21:18:16.167Z,15.00
2024-05-09T21:20:46.466Z,14.96
2024-05-09T21:23:13.985Z,14.90
2024-05-09T21:25:46.813Z,14.83
2024-05-09T21:28:15.157Z,14.82
2024-05-09T21:30:45.387Z,14.74
2024-05-09T21:33:14.436Z,14.68
2024-05-09T21:35:45.989Z,14.64
2024-05-09T21:38:14.761Z,14.69
2024-05-09T21:40:47.887Z,14.64
2024-05-09T21:43:15.784Z,14.57
2024-05-09T21:45:46.111Z,14.53
2024-05-09T21:48:13.812Z,14.45
2024-05-09T21:50:44.489Z,14.43
2024-05-09T21:53:12.834Z,14.47
2024-05-09T21:55:44.254Z,14.42
2024-05-09T21:58:15.101Z,14.37
2024-05-09T22:00:46.506Z,14.30
2024-05-09T22:03:14.579Z,14.23
2024-05-09T22:05:45.298Z,14.21
2024-05-09T22:08:13.570Z,14.27
2024-05-09T22:10:44.052Z,14.24
2024-05-09T22:13:16.088Z,14.24
2024-05-09T22:15:46.370Z,14.19
2024-05-09T22:18:14.151Z,14.16
2024-05-09T22:20:47.445Z,14.16
2024-05-09T22:23:15.733Z,14.14
2024-05-09T22:25:46.218Z,14.13
2024-05-09T22:28:17.750Z,14.10
2024-05-09T22:30:48.299Z,14.09
2024-05-09T22:33:16.291Z,14.10
2024-05-09T22:35:47.562Z,14.11
2024-05-09T22:38:15.211Z,14.11
2024-05-09T22:40:48.778Z,14.10
2024-05-09T22:43:23.212Z,14.10
2024-05-09T22:45:55.652Z,14.11
2024-05-09T22:48:24.778Z,14.10
2024-05-09T22:50:56.060Z,14.10
2024-05-09T22:53:25.202Z,14.08
2024-05-09T22:55:56.216Z,14.07
2024-05-09T22:58:26.511Z,14.01
2024-05-09T23:00:56.724Z,13.98
2024-05-09T23:03:24.564Z,13.99
2024-05-09T23:05:54.827Z,13.98
2024-05-09T23:08:22.370Z,13.96
2024-05-09T23:10:52.669Z,13.94
2024-05-09T23:13:20.452Z,13.92
2024-05-09T23:15:53.332Z,13.87
2024-05-09T23:18:21.039Z,13.79
2024-05-09T23:20:51.800Z,13.76
2024-05-09T23:23:19.448Z,13.74
2024-05-09T23:25:49.735Z,13.69
2024-05-09T23:28:17.369Z,13.66
2024-05-09T23:30:47.636Z,13.67
2024-05-09T23:33:18.083Z,13.65
2024-05-09T23:35:48.434Z,13.59
2024-05-09T23:38:16.040Z,13.62
2024-05-09T23:40:46.241Z,13.62
2024-05-09T23:43:14.035Z,13.62
2024-05-09T23:45:44.786Z,13.62
2024-05-09T23:48:12.710Z,13.57
2024-05-09T23:50:45.718Z,13.57
2024-05-09T23:53:14.442Z,13.55
2024-05-09T23:55:44.688Z,13.53
2024-05-09T23:58:12.358Z,13.52
